createdAt,value
2019-02-07T00:00:36.292Z,5.37
2019-02-07T00:01:36.303Z,5.48
2019-02-07T00:02:36.315Z,5.38
2019-02-07T00:03:36.322Z,5.55
2019-02-07T00:04:36.344Z,5.53
2019-02-07T00:05:36.486Z,5.53
2019-02-07T00:06:36.383Z,5.57
2019-02-07T00:07:36.377Z,5.48
2019-02-07T00:08:36.413Z,5.50
2019-02-07T00:09:36.406Z,5.60
2019-02-07T00:10:36.423Z,5.74
2019-02-07T00:11:36.440Z,5.77
2019-02-07T00:12:36.440Z,5.83
2019-02-07T00:13:36.451Z,6.00
2019-02-07T00:14:39.821Z,5.81
2019-02-07T00:15:36.770Z,5.70
2019-02-07T00:16:36.490Z,5.73
2019-02-07T00:17:36.504Z,5.66
2019-02-07T00:18:36.519Z,5.67
2019-02-07T00:19:36.531Z,5.53
2019-02-07T00:20:36.632Z,5.31
2019-02-07T00:21:36.553Z,5.40
2019-02-07T00:22:39.218Z,5.43
2019-02-07T00:23:36.581Z,5.66
2019-02-07T00:24:42.925Z,5.91
2019-02-07T00:25:36.602Z,5.86
2019-02-07T00:26:36.625Z,5.60
2019-02-07T00:27:36.634Z,5.64
2019-02-07T00:28:36.647Z,5.34
2019-02-07T00:29:36.687Z,5.64
2019-02-07T00:30:36.848Z,5.71
2019-02-07T00:31:36.685Z,5.66
2019-02-07T00:32:36.709Z,5.68
2019-02-07T00:33:36.714Z,5.68
2019-02-07T00:34:36.726Z,5.67
2019-02-07T00:35:36.738Z,5.73
2019-02-07T00:36:36.752Z,5.66
2019-02-07T00:37:36.765Z,5.49
2019-02-07T00:38:36.776Z,5.66
2019-02-07T00:39:36.786Z,5.57
2019-02-07T00:40:36.876Z,5.53
2019-02-07T00:41:36.816Z,5.43
2019-02-07T00:42:36.828Z,5.43
2019-02-07T00:43:36.839Z,5.57
2019-02-07T00:44:36.849Z,5.68
2019-02-07T00:45:36.871Z,5.64
2019-02-07T00:46:36.879Z,5.71
2019-02-07T00:47:36.904Z,5.60
2019-02-07T00:48:36.907Z,5.59
2019-02-07T00:49:36.918Z,5.59
2019-02-07T00:50:37.133Z,5.59
2019-02-07T00:51:36.942Z,5.55
2019-02-07T00:52:36.958Z,5.43
2019-02-07T00:53:36.983Z,5.55
2019-02-07T00:54:36.976Z,5.73
2019-02-07T00:55:37.005Z,5.67
2019-02-07T00:56:39.737Z,5.71
2019-02-07T00:57:37.016Z,5.56
2019-02-07T00:58:37.041Z,5.67
2019-02-07T00:59:37.053Z,5.57
2019-02-07T01:00:37.080Z,5.55
2019-02-07T01:01:37.067Z,5.56
2019-02-07T01:02:37.164Z,5.53
2019-02-07T01:03:37.116Z,5.50
2019-02-07T01:04:37.104Z,5.50
2019-02-07T01:05:37.120Z,5.50
2019-02-07T01:06:37.132Z,5.40
2019-02-07T01:07:37.146Z,5.38
2019-02-07T01:08:37.161Z,5.57
2019-02-07T01:09:37.170Z,5.68
2019-02-07T01:10:37.181Z,5.68
2019-02-07T01:11:37.194Z,5.67
2019-02-07T01:12:37.208Z,5.68
2019-02-07T01:13:37.232Z,5.50
2019-02-07T01:14:37.237Z,5.13
2019-02-07T01:15:37.321Z,5.31
2019-02-07T01:16:37.276Z,5.40
2019-02-07T01:17:37.282Z,5.41
2019-02-07T01:18:37.302Z,5.50
2019-02-07T01:19:37.302Z,5.57
2019-02-07T01:20:37.334Z,5.48
2019-02-07T01:21:37.325Z,5.27
2019-02-07T01:22:37.346Z,5.30
2019-02-07T01:23:37.356Z,5.13
2019-02-07T01:24:37.363Z,5.17
2019-02-07T01:25:37.511Z,5.07
2019-02-07T01:26:37.387Z,5.17
2019-02-07T01:27:37.417Z,5.07
2019-02-07T01:28:37.427Z,5.04
2019-02-07T01:29:37.429Z,5.05
2019-02-07T01:30:37.440Z,5.09
2019-02-07T01:31:37.458Z,5.14
2019-02-07T01:32:37.470Z,5.14
2019-02-07T01:33:37.481Z,5.17
2019-02-07T01:34:37.518Z,5.14
2019-02-07T01:35:37.503Z,5.17
2019-02-07T01:36:37.529Z,4.95
2019-02-07T01:37:37.538Z,5.14
2019-02-07T01:38:37.604Z,4.98
2019-02-07T01:39:37.558Z,5.12
2019-02-07T01:40:37.574Z,5.57
2019-02-07T01:41:37.583Z,5.66
2019-02-07T01:42:37.601Z,5.56
2019-02-07T01:43:37.613Z,5.41
2019-02-07T01:44:37.630Z,5.59
2019-02-07T01:45:37.634Z,5.63
2019-02-07T01:46:37.650Z,5.71
2019-02-07T01:47:37.662Z,5.88
2019-02-07T01:48:37.719Z,6.00
2019-02-07T01:49:37.685Z,6.00
2019-02-07T01:50:37.698Z,6.09
2019-02-07T01:51:37.721Z,5.78
2019-02-07T01:52:37.722Z,5.37
2019-02-07T01:53:37.733Z,5.38
2019-02-07T01:54:37.758Z,5.17
2019-02-07T01:55:37.759Z,5.31
2019-02-07T01:56:37.793Z,5.56
2019-02-07T01:57:37.819Z,5.49
2019-02-07T01:58:37.816Z,5.45
2019-02-07T01:59:37.818Z,5.25
2019-02-07T02:00:37.829Z,5.01
2019-02-07T02:01:37.842Z,5.13
2019-02-07T02:02:37.848Z,5.27
2019-02-07T02:03:37.902Z,5.23
2019-02-07T02:04:37.877Z,5.30
2019-02-07T02:05:37.886Z,5.38
2019-02-07T02:06:37.902Z,5.23
2019-02-07T02:07:37.912Z,5.12
2019-02-07T02:08:37.919Z,5.32
2019-02-07T02:09:37.939Z,5.59
2019-02-07T02:10:37.946Z,5.10
2019-02-07T02:11:37.963Z,4.94
2019-02-07T02:12:37.976Z,5.30
2019-02-07T02:13:38.040Z,5.30
2019-02-07T02:14:37.998Z,5.30
2019-02-07T02:15:38.015Z,5.35
2019-02-07T02:16:38.030Z,5.37
2019-02-07T02:17:38.045Z,5.25
2019-02-07T02:18:38.066Z,5.31
2019-02-07T02:19:38.063Z,5.30
2019-02-07T02:20:38.074Z,5.25
2019-02-07T02:21:38.087Z,5.12
2019-02-07T02:22:38.100Z,5.09
2019-02-07T02:23:38.176Z,5.19
2019-02-07T02:24:38.124Z,5.02
2019-02-07T02:25:38.138Z,4.94
2019-02-07T02:26:38.174Z,4.95
2019-02-07T02:27:38.167Z,4.84
2019-02-07T02:28:38.179Z,4.80
2019-02-07T02:29:38.191Z,5.09
2019-02-07T02:30:38.213Z,4.99
2019-02-07T02:31:38.214Z,4.99
2019-02-07T02:32:38.228Z,5.13
2019-02-07T02:33:38.335Z,5.10
2019-02-07T02:34:38.254Z,5.16
2019-02-07T02:35:38.263Z,4.95
2019-02-07T02:36:38.280Z,4.92
2019-02-07T02:37:38.295Z,5.05
2019-02-07T02:38:38.300Z,4.94
2019-02-07T02:39:38.319Z,4.96
2019-02-07T02:40:38.327Z,4.95
2019-02-07T02:41:38.348Z,4.94
2019-02-07T02:42:38.353Z,5.35
2019-02-07T02:43:38.507Z,5.45
2019-02-07T02:44:38.382Z,5.37
2019-02-07T02:45:38.389Z,5.12
2019-02-07T02:46:38.416Z,5.01
2019-02-07T02:47:38.425Z,4.92
2019-02-07T02:48:38.427Z,5.12
2019-02-07T02:49:38.440Z,5.09
2019-02-07T02:50:38.464Z,5.13
2019-02-07T02:51:38.467Z,4.89
2019-02-07T02:52:40.317Z,4.79
2019-02-07T02:53:38.489Z,4.77
2019-02-07T02:54:38.501Z,4.58
2019-02-07T02:55:38.511Z,4.69
2019-02-07T02:56:38.525Z,4.65
2019-02-07T02:57:38.537Z,4.69
2019-02-07T02:58:38.623Z,4.67
2019-02-07T02:59:38.566Z,4.57
2019-02-07T03:00:38.584Z,5.09
2019-02-07T03:01:38.599Z,5.19
2019-02-07T03:02:38.605Z,5.25
2019-02-07T03:03:38.625Z,5.34
2019-02-07T03:04:38.642Z,5.20
2019-02-07T03:05:38.640Z,5.07
2019-02-07T03:06:38.649Z,4.95
2019-02-07T03:07:38.666Z,4.79
2019-02-07T03:08:38.786Z,5.04
2019-02-07T03:09:38.691Z,4.88
2019-02-07T03:10:38.702Z,5.02
2019-02-07T03:11:38.722Z,5.31
2019-02-07T03:12:38.731Z,5.16
2019-02-07T03:13:38.738Z,5.41
2019-02-07T03:14:38.753Z,5.60
2019-02-07T03:15:49.055Z,5.59
2019-02-07T03:16:38.783Z,5.43
2019-02-07T03:17:38.783Z,5.13
2019-02-07T03:18:38.923Z,5.13
2019-02-07T03:19:38.813Z,4.84
2019-02-07T03:20:38.829Z,4.89
2019-02-07T03:21:38.838Z,4.98
2019-02-07T03:22:38.851Z,5.04
2019-02-07T03:23:38.862Z,4.99
2019-02-07T03:24:38.877Z,4.95
2019-02-07T03:25:38.881Z,4.88
2019-02-07T03:26:38.899Z,5.07
2019-02-07T03:27:38.912Z,5.10
2019-02-07T03:28:38.975Z,5.05
2019-02-07T03:29:38.944Z,4.96
2019-02-07T03:30:38.951Z,4.84
2019-02-07T03:31:38.960Z,4.84
2019-02-07T03:32:38.978Z,5.04
2019-02-07T03:33:38.985Z,4.89
2019-02-07T03:34:39.002Z,4.80
2019-02-07T03:35:39.007Z,4.69
2019-02-07T03:36:39.025Z,4.73
2019-02-07T03:37:39.036Z,4.92
2019-02-07T03:38:39.051Z,4.79
2019-02-07T03:39:39.063Z,4.67
2019-02-07T03:40:39.073Z,4.84
2019-02-07T03:41:39.126Z,4.70
2019-02-07T03:42:39.095Z,4.76
2019-02-07T03:43:39.108Z,4.73
2019-02-07T03:44:39.124Z,4.80
2019-02-07T03:45:39.140Z,4.96
2019-02-07T03:46:39.148Z,5.13
2019-02-07T03:47:39.160Z,5.31
2019-02-07T03:48:39.184Z,5.09
2019-02-07T03:49:39.182Z,4.96
2019-02-07T03:50:39.192Z,4.98
2019-02-07T03:51:39.207Z,4.95
2019-02-07T03:52:39.216Z,4.95
2019-02-07T03:53:39.317Z,5.10
2019-02-07T03:54:39.240Z,5.34
2019-02-07T03:55:39.267Z,5.32
2019-02-07T03:56:39.273Z,5.12
2019-02-07T03:57:39.284Z,4.96
2019-02-07T03:58:39.288Z,5.01
2019-02-07T03:59:39.308Z,4.96
2019-02-07T04:00:39.314Z,4.96
2019-02-07T04:01:39.331Z,5.12
2019-02-07T04:02:40.688Z,5.37
2019-02-07T04:03:39.361Z,5.34
2019-02-07T04:04:39.367Z,5.04
2019-02-07T04:05:39.375Z,4.84
2019-02-07T04:06:39.410Z,4.95
2019-02-07T04:07:39.412Z,5.02
2019-02-07T04:08:39.429Z,5.01
2019-02-07T04:09:39.435Z,5.32
2019-02-07T04:10:39.442Z,5.32
2019-02-07T04:11:39.448Z,5.25
2019-02-07T04:12:39.471Z,5.20
2019-02-07T04:13:39.478Z,4.99
2019-02-07T04:14:39.489Z,4.92
2019-02-07T04:15:39.501Z,4.91
2019-02-07T04:16:39.582Z,4.96
2019-02-07T04:17:39.531Z,5.01
2019-02-07T04:18:39.536Z,5.38
2019-02-07T04:19:39.548Z,5.17
2019-02-07T04:20:39.563Z,5.02
2019-02-07T04:21:39.570Z,5.07
2019-02-07T04:22:39.583Z,5.12
2019-02-07T04:23:39.597Z,5.34
2019-02-07T04:24:39.607Z,5.16
2019-02-07T04:25:39.632Z,5.16
2019-02-07T04:26:39.667Z,5.16
2019-02-07T04:27:39.647Z,5.12
2019-02-07T04:28:39.658Z,5.17
2019-02-07T04:29:39.676Z,5.22
2019-02-07T04:30:39.687Z,5.10
2019-02-07T04:31:39.706Z,5.05
2019-02-07T04:32:39.711Z,5.10
2019-02-07T04:33:39.721Z,5.27
2019-02-07T04:34:39.734Z,5.22
2019-02-07T04:35:39.745Z,5.43
2019-02-07T04:36:39.759Z,5.45
2019-02-07T04:37:39.768Z,5.25
2019-02-07T04:38:39.784Z,5.04
2019-02-07T04:39:39.796Z,5.17
2019-02-07T04:40:39.809Z,5.34
2019-02-07T04:41:39.852Z,5.38
2019-02-07T04:42:39.833Z,5.34
2019-02-07T04:43:39.847Z,5.52
2019-02-07T04:44:39.860Z,5.63
2019-02-07T04:45:39.878Z,5.49
2019-02-07T04:46:39.894Z,5.27
2019-02-07T04:47:39.974Z,5.13
2019-02-07T04:48:39.919Z,5.07
2019-02-07T04:49:39.924Z,5.30
2019-02-07T04:50:39.967Z,5.38
2019-02-07T04:51:39.968Z,5.64
2019-02-07T04:52:39.975Z,5.60
2019-02-07T04:53:39.972Z,5.74
2019-02-07T04:54:39.984Z,5.37
2019-02-07T04:55:39.993Z,5.20
2019-02-07T04:56:40.004Z,5.25
2019-02-07T04:57:40.054Z,5.09
2019-02-07T04:58:40.031Z,5.13
2019-02-07T04:59:40.039Z,5.12
2019-02-07T05:00:40.050Z,5.22
2019-02-07T05:01:40.107Z,5.13
2019-02-07T05:02:40.075Z,5.10
2019-02-07T05:03:40.094Z,4.94
2019-02-07T05:04:40.106Z,4.94
2019-02-07T05:05:40.110Z,4.95
2019-02-07T05:06:40.127Z,4.92
2019-02-07T05:07:40.155Z,4.92
2019-02-07T05:08:40.146Z,4.89
2019-02-07T05:09:40.162Z,5.01
2019-02-07T05:10:40.247Z,4.94
2019-02-07T05:11:40.307Z,4.94
2019-02-07T05:12:40.207Z,4.89
2019-02-07T05:13:40.209Z,4.91
2019-02-07T05:14:40.227Z,4.94
2019-02-07T05:15:40.235Z,4.92
2019-02-07T05:16:43.576Z,4.89
2019-02-07T05:17:40.267Z,4.83
2019-02-07T05:18:40.264Z,5.01
2019-02-07T05:19:40.288Z,5.13
2019-02-07T05:20:40.297Z,5.12
2019-02-07T05:21:40.433Z,5.23
2019-02-07T05:22:40.329Z,5.17
2019-02-07T05:23:40.338Z,5.19
2019-02-07T05:24:41.147Z,5.17
2019-02-07T05:25:40.365Z,4.94
2019-02-07T05:26:40.365Z,5.10
2019-02-07T05:27:40.377Z,5.01
2019-02-07T05:28:40.398Z,4.77
2019-02-07T05:29:40.409Z,4.96
2019-02-07T05:30:40.417Z,5.10
2019-02-07T05:31:40.434Z,4.80
2019-02-07T05:32:40.453Z,4.99
2019-02-07T05:33:40.453Z,4.98
2019-02-07T05:34:40.466Z,5.02
2019-02-07T05:35:40.480Z,5.02
2019-02-07T05:36:42.361Z,4.96
2019-02-07T05:37:40.510Z,5.14
2019-02-07T05:38:40.519Z,5.12
2019-02-07T05:39:40.533Z,5.01
2019-02-07T05:40:40.549Z,5.07
2019-02-07T05:41:40.555Z,5.27
2019-02-07T05:42:40.576Z,5.25
2019-02-07T05:43:40.587Z,5.34
2019-02-07T05:44:40.616Z,5.28
2019-02-07T05:45:40.616Z,5.12
2019-02-07T05:46:50.640Z,5.09
2019-02-07T05:47:40.634Z,5.12
2019-02-07T05:48:40.646Z,5.13
2019-02-07T05:49:40.655Z,5.12
2019-02-07T05:50:40.669Z,5.04
2019-02-07T05:51:40.682Z,5.10
2019-02-07T05:52:40.697Z,5.14
2019-02-07T05:53:40.703Z,5.28
2019-02-07T05:54:40.718Z,5.09
2019-02-07T05:55:40.726Z,4.99
2019-02-07T05:56:40.896Z,4.99
2019-02-07T05:57:40.756Z,5.17
2019-02-07T05:58:40.777Z,4.95
2019-02-07T05:59:40.773Z,4.95
2019-02-07T06:00:40.793Z,4.83
2019-02-07T06:01:40.803Z,4.80
2019-02-07T06:02:40.820Z,4.89
2019-02-07T06:03:40.825Z,4.98
2019-02-07T06:04:40.841Z,5.04
2019-02-07T06:05:40.854Z,4.94
2019-02-07T06:06:40.994Z,4.73
2019-02-07T06:07:40.879Z,4.99
2019-02-07T06:08:40.890Z,5.09
2019-02-07T06:09:40.923Z,5.13
2019-02-07T06:10:40.918Z,5.01
2019-02-07T06:11:40.926Z,5.07
2019-02-07T06:12:40.939Z,4.95
2019-02-07T06:13:40.964Z,4.94
2019-02-07T06:14:40.967Z,4.88
2019-02-07T06:15:40.979Z,5.09
2019-02-07T06:16:40.999Z,4.88
2019-02-07T06:17:41.005Z,4.61
2019-02-07T06:18:41.020Z,4.77
2019-02-07T06:19:41.029Z,4.70
2019-02-07T06:20:41.047Z,4.64
2019-02-07T06:21:41.105Z,4.86
2019-02-07T06:22:41.068Z,4.99
2019-02-07T06:23:41.076Z,5.30
2019-02-07T06:24:41.090Z,5.37
2019-02-07T06:25:41.105Z,5.27
2019-02-07T06:26:41.113Z,5.41
2019-02-07T06:27:41.129Z,5.43
2019-02-07T06:28:41.135Z,5.38
2019-02-07T06:29:41.155Z,5.16
2019-02-07T06:30:41.167Z,5.28
2019-02-07T06:31:41.224Z,5.23
2019-02-07T06:32:41.185Z,4.95
2019-02-07T06:33:41.207Z,4.94
2019-02-07T06:34:41.214Z,4.80
2019-02-07T06:35:41.227Z,4.84
2019-02-07T06:36:41.237Z,4.98
2019-02-07T06:37:41.253Z,4.92
2019-02-07T06:38:41.257Z,4.79
2019-02-07T06:39:41.282Z,5.13
2019-02-07T06:40:41.292Z,5.04
2019-02-07T06:41:41.315Z,4.91
2019-02-07T06:42:41.315Z,5.01
2019-02-07T06:43:41.325Z,5.01
2019-02-07T06:44:41.367Z,5.02
2019-02-07T06:45:41.344Z,4.92
2019-02-07T06:46:41.357Z,5.12
2019-02-07T06:47:41.391Z,5.25
2019-02-07T06:48:41.385Z,5.27
2019-02-07T06:49:41.399Z,5.32
2019-02-07T06:50:41.412Z,5.35
2019-02-07T06:51:41.421Z,5.17
2019-02-07T06:52:41.457Z,4.91
2019-02-07T06:53:41.458Z,4.99
2019-02-07T06:54:41.516Z,5.23
2019-02-07T06:55:41.472Z,5.37
2019-02-07T06:56:41.484Z,5.38
2019-02-07T06:57:41.498Z,5.25
2019-02-07T06:58:41.516Z,5.20
2019-02-07T06:59:41.525Z,4.98
2019-02-07T07:00:41.538Z,5.16
2019-02-07T07:01:41.551Z,5.10
2019-02-07T07:02:41.554Z,5.01
2019-02-07T07:03:41.570Z,4.91
2019-02-07T07:04:41.670Z,5.09
2019-02-07T07:05:41.597Z,5.05
2019-02-07T07:06:41.613Z,5.17
2019-02-07T07:07:41.632Z,5.16
2019-02-07T07:08:41.637Z,4.99
2019-02-07T07:09:41.651Z,5.01
2019-02-07T07:10:41.662Z,4.98
2019-02-07T07:11:41.673Z,5.14
2019-02-07T07:12:41.717Z,5.13
2019-02-07T07:13:41.696Z,4.99
2019-02-07T07:14:41.709Z,4.94
2019-02-07T07:15:41.732Z,4.83
2019-02-07T07:16:41.730Z,4.99
2019-02-07T07:17:41.753Z,5.17
2019-02-07T07:18:41.756Z,5.14
2019-02-07T07:19:41.805Z,5.02
2019-02-07T07:20:41.786Z,4.95
2019-02-07T07:21:41.805Z,5.10
2019-02-07T07:22:41.820Z,4.84
2019-02-07T07:23:41.830Z,4.98
2019-02-07T07:24:41.835Z,4.95
2019-02-07T07:25:41.852Z,5.13
2019-02-07T07:26:41.859Z,5.48
2019-02-07T07:27:41.879Z,5.59
2019-02-07T07:28:41.899Z,5.32
2019-02-07T07:29:41.978Z,5.35
2019-02-07T07:30:41.909Z,5.56
2019-02-07T07:31:41.926Z,5.41
2019-02-07T07:32:41.938Z,5.35
2019-02-07T07:33:41.943Z,5.32
2019-02-07T07:34:41.976Z,5.13
2019-02-07T07:35:41.972Z,5.13
2019-02-07T07:36:41.989Z,5.10
2019-02-07T07:37:41.989Z,5.17
2019-02-07T07:38:42.006Z,5.17
2019-02-07T07:39:42.121Z,5.34
2019-02-07T07:40:42.039Z,5.37
2019-02-07T07:41:42.040Z,5.32
2019-02-07T07:42:42.061Z,5.31
2019-02-07T07:43:42.069Z,5.37
2019-02-07T07:44:42.087Z,5.37
2019-02-07T07:45:42.091Z,5.55
2019-02-07T07:46:42.106Z,5.40
2019-02-07T07:47:42.127Z,5.66
2019-02-07T07:48:42.127Z,5.59
2019-02-07T07:49:42.253Z,5.31
2019-02-07T07:50:42.167Z,5.37
2019-02-07T07:51:42.169Z,5.27
2019-02-07T07:52:42.188Z,5.30
2019-02-07T07:53:42.207Z,5.22
2019-02-07T07:54:42.239Z,5.25
2019-02-07T07:55:42.213Z,5.31
2019-02-07T07:56:42.234Z,5.48
2019-02-07T07:57:42.235Z,5.37
2019-02-07T07:58:42.252Z,5.37
2019-02-07T07:59:42.490Z,5.37
2019-02-07T08:00:42.283Z,5.50
2019-02-07T08:01:42.312Z,5.68
2019-02-07T08:02:42.302Z,5.70
2019-02-07T08:03:42.352Z,5.71
2019-02-07T08:04:42.464Z,5.57
2019-02-07T08:05:42.337Z,5.31
2019-02-07T08:06:42.357Z,5.19
2019-02-07T08:07:42.374Z,5.20
2019-02-07T08:08:42.375Z,5.04
2019-02-07T08:09:42.387Z,5.25
2019-02-07T08:10:42.402Z,5.12
2019-02-07T08:11:42.412Z,5.07
2019-02-07T08:12:42.434Z,5.12
2019-02-07T08:13:42.437Z,5.13
2019-02-07T08:14:42.678Z,5.10
2019-02-07T08:15:42.473Z,5.12
2019-02-07T08:16:42.475Z,5.30
2019-02-07T08:17:47.582Z,5.34
2019-02-07T08:18:42.513Z,5.22
2019-02-07T08:19:42.505Z,5.31
2019-02-07T08:20:42.522Z,5.50
2019-02-07T08:21:42.534Z,5.64
2019-02-07T08:22:42.550Z,5.57
2019-02-07T08:23:42.562Z,5.68
2019-02-07T08:24:42.608Z,5.82
2019-02-07T08:25:42.593Z,5.70
2019-02-07T08:26:42.605Z,5.48
2019-02-07T08:27:42.611Z,5.37
2019-02-07T08:28:42.633Z,5.31
2019-02-07T08:29:42.641Z,5.35
2019-02-07T08:30:42.658Z,5.48
2019-02-07T08:31:42.667Z,5.34
2019-02-07T08:32:42.678Z,5.22
2019-02-07T08:33:42.682Z,5.28
2019-02-07T08:34:42.781Z,5.35
2019-02-07T08:35:42.713Z,5.28
2019-02-07T08:36:42.728Z,5.05
2019-02-07T08:37:42.740Z,5.12
2019-02-07T08:38:42.751Z,5.27
2019-02-07T08:39:42.775Z,5.30
2019-02-07T08:40:42.779Z,5.37
2019-02-07T08:41:42.785Z,5.34
2019-02-07T08:42:42.797Z,5.22
2019-02-07T08:43:42.811Z,5.28
2019-02-07T08:44:42.885Z,5.31
2019-02-07T08:45:42.916Z,5.30
2019-02-07T08:46:42.900Z,5.32
2019-02-07T08:47:42.897Z,5.56
2019-02-07T08:48:43.665Z,5.41
2019-02-07T08:49:42.885Z,5.46
2019-02-07T08:50:42.912Z,5.41
2019-02-07T08:51:42.919Z,5.68
2019-02-07T08:52:42.930Z,5.83
2019-02-07T08:53:42.939Z,5.66
2019-02-07T08:54:42.952Z,5.82
2019-02-07T08:55:42.971Z,5.82
2019-02-07T08:56:42.981Z,5.67
2019-02-07T08:57:42.987Z,5.60
2019-02-07T08:58:43.010Z,5.37
2019-02-07T08:59:43.024Z,5.37
2019-02-07T09:00:43.032Z,5.49
2019-02-07T09:01:43.043Z,5.46
2019-02-07T09:02:51.572Z,5.45
2019-02-07T09:03:43.069Z,5.50
2019-02-07T09:04:43.098Z,5.67
2019-02-07T09:05:43.093Z,5.53
2019-02-07T09:06:43.112Z,5.43
2019-02-07T09:07:43.124Z,5.41
2019-02-07T09:08:43.132Z,5.53
2019-02-07T09:09:43.261Z,5.73
2019-02-07T09:10:43.154Z,5.64
2019-02-07T09:11:43.181Z,5.59
2019-02-07T09:12:43.187Z,5.63
2019-02-07T09:13:43.193Z,5.57
2019-02-07T09:14:43.205Z,5.57
2019-02-07T09:15:43.219Z,5.57
2019-02-07T09:16:43.239Z,5.59
2019-02-07T09:17:43.251Z,5.56
2019-02-07T09:18:43.269Z,5.59
2019-02-07T09:19:43.282Z,5.59
2019-02-07T09:20:43.285Z,5.68
2019-02-07T09:21:43.300Z,5.70
2019-02-07T09:22:43.341Z,5.98
2019-02-07T09:23:43.325Z,5.67
2019-02-07T09:24:43.341Z,5.70
2019-02-07T09:25:43.354Z,5.57
2019-02-07T09:26:43.371Z,5.64
2019-02-07T09:27:43.383Z,5.64
2019-02-07T09:28:43.393Z,5.73
2019-02-07T09:29:43.403Z,5.59
2019-02-07T09:30:43.452Z,5.56
2019-02-07T09:31:43.434Z,5.73
2019-02-07T09:32:43.484Z,5.66
2019-02-07T09:33:43.458Z,5.66
2019-02-07T09:34:43.466Z,5.59
2019-02-07T09:35:43.481Z,5.52
2019-02-07T09:36:43.497Z,5.53
2019-02-07T09:37:43.516Z,5.91
2019-02-07T09:38:43.520Z,5.85
2019-02-07T09:39:43.529Z,6.00
2019-02-07T09:40:43.543Z,5.82
2019-02-07T09:41:43.570Z,6.04
2019-02-07T09:42:43.567Z,5.82
2019-02-07T09:43:43.585Z,6.03
2019-02-07T09:44:43.595Z,5.91
2019-02-07T09:45:43.606Z,5.91
2019-02-07T09:46:43.622Z,5.93
2019-02-07T09:47:43.643Z,5.82
2019-02-07T09:48:43.660Z,5.75
2019-02-07T09:49:43.665Z,5.78
2019-02-07T09:50:43.671Z,5.95
2019-02-07T09:51:43.693Z,5.83
2019-02-07T09:52:43.701Z,5.77
2019-02-07T09:53:43.723Z,5.93
2019-02-07T09:54:43.737Z,6.21
2019-02-07T09:55:43.745Z,6.01
2019-02-07T09:56:43.763Z,6.03
2019-02-07T09:57:43.761Z,6.00
2019-02-07T09:58:43.805Z,6.13
2019-02-07T09:59:43.796Z,6.01
2019-02-07T10:00:43.807Z,5.98
2019-02-07T10:01:43.812Z,6.16
2019-02-07T10:02:43.828Z,6.18
2019-02-07T10:03:43.849Z,6.18
2019-02-07T10:04:43.869Z,6.25
2019-02-07T10:05:43.869Z,6.10
2019-02-07T10:06:43.887Z,6.22
2019-02-07T10:07:43.954Z,6.30
2019-02-07T10:08:43.914Z,6.18
2019-02-07T10:09:43.922Z,6.11
2019-02-07T10:10:43.941Z,5.98
2019-02-07T10:11:43.949Z,6.01
2019-02-07T10:12:43.964Z,6.00
2019-02-07T10:13:43.973Z,6.06
2019-02-07T10:14:43.986Z,6.04
2019-02-07T10:15:44.008Z,6.28
2019-02-07T10:16:44.015Z,6.16
2019-02-07T10:17:44.083Z,6.13
2019-02-07T10:18:44.044Z,6.32
2019-02-07T10:19:44.057Z,6.33
2019-02-07T10:20:44.078Z,6.36
2019-02-07T10:21:44.078Z,6.56
2019-02-07T10:22:44.097Z,6.50
2019-02-07T10:23:44.108Z,6.63
2019-02-07T10:24:44.125Z,6.58
2019-02-07T10:25:44.134Z,6.46
2019-02-07T10:26:44.148Z,6.32
2019-02-07T10:27:44.172Z,6.33
2019-02-07T10:28:44.184Z,6.14
2019-02-07T10:29:44.184Z,6.07
2019-02-07T10:30:44.201Z,6.03
2019-02-07T10:31:44.210Z,6.03
2019-02-07T10:32:44.225Z,6.14
2019-02-07T10:33:44.235Z,6.32
2019-02-07T10:34:44.277Z,6.40
2019-02-07T10:35:44.286Z,6.13
2019-02-07T10:36:44.282Z,6.03
2019-02-07T10:37:44.297Z,6.11
2019-02-07T10:38:44.304Z,6.07
2019-02-07T10:39:44.325Z,6.04
2019-02-07T10:40:44.337Z,6.03
2019-02-07T10:41:44.349Z,5.95
2019-02-07T10:42:44.382Z,5.92
2019-02-07T10:43:44.368Z,5.92
2019-02-07T10:44:44.388Z,5.78
2019-02-07T10:45:44.402Z,5.92
2019-02-07T10:46:44.411Z,6.03
2019-02-07T10:47:44.418Z,6.00
2019-02-07T10:48:44.835Z,6.00
2019-02-07T10:49:44.445Z,6.00
2019-02-07T10:50:44.456Z,6.16
2019-02-07T10:51:44.476Z,6.28
2019-02-07T10:52:44.537Z,6.11
2019-02-07T10:53:44.523Z,6.29
2019-02-07T10:54:44.511Z,6.16
2019-02-07T10:55:44.524Z,6.29
2019-02-07T10:56:44.553Z,6.48
2019-02-07T10:57:44.560Z,6.50
2019-02-07T10:58:44.577Z,6.36
2019-02-07T10:59:44.591Z,6.41
2019-02-07T11:00:44.606Z,6.51
2019-02-07T11:01:44.600Z,6.51
2019-02-07T11:02:44.732Z,6.50
2019-02-07T11:03:44.633Z,6.54
2019-02-07T11:04:44.649Z,6.66
2019-02-07T11:05:44.658Z,6.72
2019-02-07T11:06:44.671Z,6.63
2019-02-07T11:07:44.684Z,6.63
2019-02-07T11:08:44.709Z,6.65
2019-02-07T11:09:44.713Z,6.62
2019-02-07T11:10:44.756Z,6.63
2019-02-07T11:11:44.736Z,6.48
2019-02-07T11:12:44.762Z,6.59
2019-02-07T11:13:44.771Z,6.62
2019-02-07T11:14:44.778Z,6.54
2019-02-07T11:15:44.799Z,6.51
2019-02-07T11:16:44.803Z,6.61
2019-02-07T11:17:44.820Z,6.63
2019-02-07T11:18:55.101Z,6.84
2019-02-07T11:19:44.843Z,6.72
2019-02-07T11:20:44.854Z,6.68
2019-02-07T11:21:44.872Z,6.61
2019-02-07T11:22:44.980Z,6.59
2019-02-07T11:23:44.915Z,6.68
2019-02-07T11:24:44.911Z,6.84
2019-02-07T11:25:44.922Z,6.61
2019-02-07T11:26:44.936Z,6.66
2019-02-07T11:27:44.953Z,6.69
2019-02-07T11:28:44.970Z,6.63
2019-02-07T11:29:44.979Z,6.86
2019-02-07T11:30:45.001Z,6.71
2019-02-07T11:31:45.028Z,6.63
2019-02-07T11:32:45.031Z,6.61
2019-02-07T11:33:45.032Z,6.63
2019-02-07T11:34:46.073Z,6.69
2019-02-07T11:35:45.057Z,6.90
2019-02-07T11:36:53.758Z,6.76
2019-02-07T11:37:45.137Z,6.68
2019-02-07T11:38:45.102Z,6.71
2019-02-07T11:39:45.111Z,6.79
2019-02-07T11:40:45.125Z,6.77
2019-02-07T11:41:45.160Z,6.77
2019-02-07T11:42:45.159Z,6.80
2019-02-07T11:43:45.169Z,6.81
2019-02-07T11:44:45.183Z,6.94
2019-02-07T11:45:45.202Z,6.95
2019-02-07T11:46:48.709Z,6.91
2019-02-07T11:47:45.305Z,6.98
2019-02-07T11:48:45.241Z,7.07
2019-02-07T11:49:45.251Z,6.95
2019-02-07T11:50:45.256Z,6.79
2019-02-07T11:51:45.273Z,6.89
2019-02-07T11:52:45.288Z,6.98
2019-02-07T11:53:45.299Z,6.73
2019-02-07T11:54:45.311Z,6.71
2019-02-07T11:55:45.329Z,6.72
2019-02-07T11:56:45.344Z,6.86
2019-02-07T11:57:45.429Z,6.94
2019-02-07T11:58:45.374Z,6.97
2019-02-07T11:59:45.387Z,6.76
2019-02-07T12:00:45.412Z,6.69
2019-02-07T12:01:45.417Z,6.69
2019-02-07T12:02:45.421Z,6.89
2019-02-07T12:03:45.441Z,6.68
2019-02-07T12:04:45.456Z,6.61
2019-02-07T12:05:45.468Z,6.63
2019-02-07T12:06:45.489Z,6.69
2019-02-07T12:07:45.551Z,6.83
2019-02-07T12:08:45.522Z,6.77
2019-02-07T12:09:45.525Z,6.66
2019-02-07T12:10:47.647Z,6.68
2019-02-07T12:11:45.549Z,6.65
2019-02-07T12:12:45.554Z,6.79
2019-02-07T12:13:45.575Z,6.61
2019-02-07T12:14:45.587Z,6.65
2019-02-07T12:15:45.599Z,6.66
2019-02-07T12:16:45.612Z,6.94
2019-02-07T12:17:45.721Z,6.72
2019-02-07T12:18:45.641Z,6.89
2019-02-07T12:19:45.662Z,6.71
2019-02-07T12:20:45.661Z,6.71
2019-02-07T12:21:45.678Z,6.61
2019-02-07T12:22:45.756Z,6.66
2019-02-07T12:23:45.719Z,6.62
2019-02-07T12:24:45.716Z,6.65
2019-02-07T12:25:45.735Z,6.58
2019-02-07T12:26:45.760Z,6.63
2019-02-07T12:27:45.765Z,6.80
2019-02-07T12:28:45.784Z,6.68
2019-02-07T12:29:45.787Z,6.71
2019-02-07T12:30:45.799Z,6.59
2019-02-07T12:31:45.956Z,6.83
2019-02-07T12:32:45.938Z,6.83
2019-02-07T12:33:45.959Z,6.81
2019-02-07T12:34:45.890Z,6.89
2019-02-07T12:35:45.974Z,6.87
2019-02-07T12:36:45.912Z,6.97
2019-02-07T12:37:45.950Z,6.90
2019-02-07T12:38:45.908Z,6.91
2019-02-07T12:39:45.916Z,6.86
2019-02-07T12:40:45.934Z,6.76
2019-02-07T12:41:45.947Z,6.80
2019-02-07T12:42:46.079Z,6.83
2019-02-07T12:43:45.975Z,6.84
2019-02-07T12:44:45.994Z,6.76
2019-02-07T12:45:46.019Z,6.89
2019-02-07T12:46:46.017Z,6.76
2019-02-07T12:47:46.027Z,7.07
2019-02-07T12:48:46.033Z,7.02
2019-02-07T12:49:46.052Z,7.15
2019-02-07T12:50:46.075Z,7.07
2019-02-07T12:51:46.082Z,7.13
2019-02-07T12:52:46.197Z,7.15
2019-02-07T12:53:46.110Z,7.19
2019-02-07T12:54:46.120Z,7.31
2019-02-07T12:55:52.247Z,7.29
2019-02-07T12:56:46.147Z,7.34
2019-02-07T12:57:46.164Z,7.38
2019-02-07T12:58:46.174Z,7.49
2019-02-07T12:59:46.197Z,7.41
2019-02-07T13:00:46.209Z,7.47
2019-02-07T13:01:46.226Z,7.45
2019-02-07T13:02:46.333Z,7.41
2019-02-07T13:03:46.248Z,7.40
2019-02-07T13:04:46.251Z,7.35
2019-02-07T13:05:46.278Z,7.38
2019-02-07T13:06:46.286Z,7.38
2019-02-07T13:07:46.296Z,7.42
2019-02-07T13:08:46.313Z,7.40
2019-02-07T13:09:46.327Z,7.38
2019-02-07T13:10:46.354Z,7.37
2019-02-07T13:11:46.353Z,7.42
2019-02-07T13:12:46.377Z,7.34
2019-02-07T13:13:46.427Z,7.38
2019-02-07T13:14:46.444Z,7.35
2019-02-07T13:15:46.432Z,7.42
2019-02-07T13:16:46.442Z,7.35
2019-02-07T13:17:46.526Z,7.40
2019-02-07T13:18:46.448Z,7.26